sensor_id;sensor_type;location;lat;lon;timestamp;P1;durP1;ratioP1;P2;durP2;ratioP2
39772;SDS011;25451;51.960;6.250;2022-09-09T00:00:14;2.83;;;1.33;;
39772;SDS011;25451;51.960;6.250;2022-09-09T00:02:47;4.78;;;1.50;;
39772;SDS011;25451;51.960;6.250;2022-09-09T00:05:25;2.22;;;1.20;;
39772;SDS011;25451;51.960;6.250;2022-09-09T00:07:57;2.53;;;1.30;;
39772;SDS011;25451;51.960;6.250;2022-09-09T00:10:27;3.05;;;1.50;;
39772;SDS011;25451;51.960;6.250;2022-09-09T00:15:26;2.60;;;1.38;;
39772;SDS011;25451;51.960;6.250;2022-09-09T00:18:03;3.10;;;1.20;;
39772;SDS011;25451;51.960;6.250;2022-09-09T00:20:42;2.25;;;1.25;;
39772;SDS011;25451;51.960;6.250;2022-09-09T00:23:29;2.58;;;1.35;;
39772;SDS011;25451;51.960;6.250;2022-09-09T00:26:09;3.05;;;1.30;;
39772;SDS011;25451;51.960;6.250;2022-09-09T00:28:52;3.35;;;1.30;;
39772;SDS011;25451;51.960;6.250;2022-09-09T00:31:27;4.27;;;1.40;;
39772;SDS011;25451;51.960;6.250;2022-09-09T00:33:54;2.17;;;1.20;;
39772;SDS011;25451;51.960;6.250;2022-09-09T00:36:26;2.60;;;1.20;;
39772;SDS011;25451;51.960;6.250;2022-09-09T00:38:55;3.63;;;1.10;;
39772;SDS011;25451;51.960;6.250;2022-09-09T00:41:29;3.67;;;1.27;;
39772;SDS011;25451;51.960;6.250;2022-09-09T00:46:52;4.72;;;1.23;;
39772;SDS011;25451;51.960;6.250;2022-09-09T00:57:40;3.43;;;1.20;;
39772;SDS011;25451;51.960;6.250;2022-09-09T01:06:14;3.60;;;0.90;;
39772;SDS011;25451;51.960;6.250;2022-09-09T01:11:25;2.30;;;0.80;;
39772;SDS011;25451;51.960;6.250;2022-09-09T01:16:58;4.80;;;1.10;;
39772;SDS011;25451;51.960;6.250;2022-09-09T01:22:14;1.83;;;0.90;;
39772;SDS011;25451;51.960;6.250;2022-09-09T01:27:38;3.00;;;0.93;;
39772;SDS011;25451;51.960;6.250;2022-09-09T01:30:09;2.97;;;0.90;;
39772;SDS011;25451;51.960;6.250;2022-09-09T01:32:43;2.22;;;0.80;;
39772;SDS011;25451;51.960;6.250;2022-09-09T01:35:11;1.30;;;0.80;;
39772;SDS011;25451;51.960;6.250;2022-09-09T01:37:46;2.25;;;0.90;;
39772;SDS011;25451;51.960;6.250;2022-09-09T01:40:11;1.47;;;0.73;;
39772;SDS011;25451;51.960;6.250;2022-09-09T01:42:37;1.50;;;1.00;;
39772;SDS011;25451;51.960;6.250;2022-09-09T01:45:02;0.80;;;0.70;;
39772;SDS011;25451;51.960;6.250;2022-09-09T01:47:28;1.80;;;0.80;;
39772;SDS011;25451;51.960;6.250;2022-09-09T01:49:54;2.70;;;0.73;;
39772;SDS011;25451;51.960;6.250;2022-09-09T01:52:19;1.07;;;0.70;;
39772;SDS011;25451;51.960;6.250;2022-09-09T01:54:44;2.67;;;0.83;;
39772;SDS011;25451;51.960;6.250;2022-09-09T02:02:20;2.35;;;1.10;;
39772;SDS011;25451;51.960;6.250;2022-09-09T02:05:11;3.50;;;1.00;;
39772;SDS011;25451;51.960;6.250;2022-09-09T02:07:50;3.45;;;1.10;;
39772;SDS011;25451;51.960;6.250;2022-09-09T02:10:22;2.73;;;1.27;;
39772;SDS011;25451;51.960;6.250;2022-09-09T02:12:55;3.67;;;1.80;;
39772;SDS011;25451;51.960;6.250;2022-09-09T02:15:52;4.47;;;1.90;;
39772;SDS011;25451;51.960;6.250;2022-09-09T02:18:30;4.72;;;1.80;;
39772;SDS011;25451;51.960;6.250;2022-09-09T02:21:00;3.92;;;2.22;;
39772;SDS011;25451;51.960;6.250;2022-09-09T02:23:27;5.50;;;2.60;;
39772;SDS011;25451;51.960;6.250;2022-09-09T02:25:54;5.00;;;2.42;;
39772;SDS011;25451;51.960;6.250;2022-09-09T02:28:23;6.22;;;3.00;;
39772;SDS011;25451;51.960;6.250;2022-09-09T02:30:50;6.80;;;2.80;;
39772;SDS011;25451;51.960;6.250;2022-09-09T02:33:20;6.60;;;2.47;;
39772;SDS011;25451;51.960;6.250;2022-09-09T02:35:50;4.70;;;2.40;;
39772;SDS011;25451;51.960;6.250;2022-09-09T02:38:16;3.92;;;2.15;;
39772;SDS011;25451;51.960;6.250;2022-09-09T02:40:42;7.72;;;2.28;;
39772;SDS011;25451;51.960;6.250;2022-09-09T02:43:07;4.13;;;2.17;;
39772;SDS011;25451;51.960;6.250;2022-09-09T02:45:38;3.70;;;1.90;;
39772;SDS011;25451;51.960;6.250;2022-09-09T02:51:17;2.35;;;1.33;;
39772;SDS011;25451;51.960;6.250;2022-09-09T02:54:32;2.38;;;1.50;;
39772;SDS011;25451;51.960;6.250;2022-09-09T02:56:45;2.53;;;1.50;;
39772;SDS011;25451;51.960;6.250;2022-09-09T02:59:17;3.20;;;1.60;;
39772;SDS011;25451;51.960;6.250;2022-09-09T03:01:43;5.53;;;1.60;;
39772;SDS011;25451;51.960;6.250;2022-09-09T03:04:09;3.70;;;1.47;;
39772;SDS011;25451;51.960;6.250;2022-09-09T03:06:34;2.10;;;1.33;;
39772;SDS011;25451;51.960;6.250;2022-09-09T03:09:00;3.80;;;1.48;;
39772;SDS011;25451;51.960;6.250;2022-09-09T03:11:27;3.53;;;1.60;;
39772;SDS011;25451;51.960;6.250;2022-09-09T03:13:53;2.53;;;1.50;;
39772;SDS011;25451;51.960;6.250;2022-09-09T03:16:19;4.93;;;1.40;;
39772;SDS011;25451;51.960;6.250;2022-09-09T03:18:46;3.50;;;1.75;;
39772;SDS011;25451;51.960;6.250;2022-09-09T03:21:11;3.83;;;1.40;;
39772;SDS011;25451;51.960;6.250;2022-09-09T03:23:37;3.57;;;1.50;;
39772;SDS011;25451;51.960;6.250;2022-09-09T03:26:02;4.63;;;1.40;;
39772;SDS011;25451;51.960;6.250;2022-09-09T03:28:27;4.27;;;1.43;;
39772;SDS011;25451;51.960;6.250;2022-09-09T03:31:04;3.83;;;1.40;;
39772;SDS011;25451;51.960;6.250;2022-09-09T03:33:30;3.75;;;1.65;;
39772;SDS011;25451;51.960;6.250;2022-09-09T03:35:56;4.78;;;1.67;;
39772;SDS011;25451;51.960;6.250;2022-09-09T03:38:25;2.60;;;1.40;;
39772;SDS011;25451;51.960;6.250;2022-09-09T03:40:51;4.05;;;1.48;;
39772;SDS011;25451;51.960;6.250;2022-09-09T03:43:21;4.70;;;1.48;;
39772;SDS011;25451;51.960;6.250;2022-09-09T03:45:47;3.28;;;1.50;;
39772;SDS011;25451;51.960;6.250;2022-09-09T03:48:13;6.23;;;1.70;;
39772;SDS011;25451;51.960;6.250;2022-09-09T03:50:39;3.20;;;1.48;;
39772;SDS011;25451;51.960;6.250;2022-09-09T03:53:04;5.80;;;1.80;;
39772;SDS011;25451;51.960;6.250;2022-09-09T03:55:31;3.00;;;1.40;;
39772;SDS011;25451;51.960;6.250;2022-09-09T03:57:57;2.90;;;1.40;;
39772;SDS011;25451;51.960;6.250;2022-09-09T04:00:22;3.57;;;1.60;;
39772;SDS011;25451;51.960;6.250;2022-09-09T04:02:48;3.47;;;1.60;;
39772;SDS011;25451;51.960;6.250;2022-09-09T04:05:14;2.95;;;1.50;;
39772;SDS011;25451;51.960;6.250;2022-09-09T04:07:40;3.72;;;1.70;;
39772;SDS011;25451;51.960;6.250;2022-09-09T04:10:06;4.33;;;1.70;;
39772;SDS011;25451;51.960;6.250;2022-09-09T04:12:32;2.63;;;1.60;;
39772;SDS011;25451;51.960;6.250;2022-09-09T04:14:57;4.50;;;1.50;;
39772;SDS011;25451;51.960;6.250;2022-09-09T04:17:27;2.25;;;1.40;;
39772;SDS011;25451;51.960;6.250;2022-09-09T04:19:52;5.30;;;1.73;;
39772;SDS011;25451;51.960;6.250;2022-09-09T04:22:17;4.97;;;1.70;;
39772;SDS011;25451;51.960;6.250;2022-09-09T04:24:43;3.53;;;1.70;;
39772;SDS011;25451;51.960;6.250;2022-09-09T04:27:08;7.13;;;1.70;;
39772;SDS011;25451;51.960;6.250;2022-09-09T04:29:34;3.65;;;1.65;;
39772;SDS011;25451;51.960;6.250;2022-09-09T04:31:59;4.78;;;1.67;;
39772;SDS011;25451;51.960;6.250;2022-09-09T04:34:25;5.43;;;1.70;;
39772;SDS011;25451;51.960;6.250;2022-09-09T04:36:50;4.68;;;1.73;;
39772;SDS011;25451;51.960;6.250;2022-09-09T04:39:17;4.05;;;1.65;;
39772;SDS011;25451;51.960;6.250;2022-09-09T04:41:42;5.60;;;1.67;;
39772;SDS011;25451;51.960;6.250;2022-09-09T04:44:07;5.43;;;1.90;;
39772;SDS011;25451;51.960;6.250;2022-09-09T04:46:33;4.57;;;1.70;;
39772;SDS011;25451;51.960;6.250;2022-09-09T04:48:59;4.97;;;1.90;;
39772;SDS011;25451;51.960;6.250;2022-09-09T04:51:24;6.30;;;1.90;;
39772;SDS011;25451;51.960;6.250;2022-09-09T04:53:50;4.33;;;1.80;;
39772;SDS011;25451;51.960;6.250;2022-09-09T04:56:16;4.38;;;1.90;;
39772;SDS011;25451;51.960;6.250;2022-09-09T04:58:42;7.07;;;2.05;;
39772;SDS011;25451;51.960;6.250;2022-09-09T05:01:18;5.70;;;1.90;;
39772;SDS011;25451;51.960;6.250;2022-09-09T05:03:46;6.13;;;2.08;;
39772;SDS011;25451;51.960;6.250;2022-09-09T05:06:13;6.25;;;1.77;;
39772;SDS011;25451;51.960;6.250;2022-09-09T05:08:41;3.97;;;1.90;;
39772;SDS011;25451;51.960;6.250;2022-09-09T05:13:49;4.38;;;2.08;;
39772;SDS011;25451;51.960;6.250;2022-09-09T05:16:15;3.95;;;1.83;;
39772;SDS011;25451;51.960;6.250;2022-09-09T05:18:41;3.63;;;1.70;;
39772;SDS011;25451;51.960;6.250;2022-09-09T05:21:11;4.22;;;1.90;;
39772;SDS011;25451;51.960;6.250;2022-09-09T05:23:39;4.03;;;1.70;;
39772;SDS011;25451;51.960;6.250;2022-09-09T05:26:05;5.72;;;1.85;;
39772;SDS011;25451;51.960;6.250;2022-09-09T05:28:33;3.13;;;1.60;;
39772;SDS011;25451;51.960;6.250;2022-09-09T05:31:00;5.20;;;1.70;;
39772;SDS011;25451;51.960;6.250;2022-09-09T05:33:30;3.60;;;1.70;;
39772;SDS011;25451;51.960;6.250;2022-09-09T05:38:26;5.28;;;2.10;;
39772;SDS011;25451;51.960;6.250;2022-09-09T05:40:52;6.20;;;1.90;;
39772;SDS011;25451;51.960;6.250;2022-09-09T05:43:21;4.43;;;2.10;;
39772;SDS011;25451;51.960;6.250;2022-09-09T05:45:47;4.40;;;1.77;;
39772;SDS011;25451;51.960;6.250;2022-09-09T05:48:13;6.57;;;2.13;;
39772;SDS011;25451;51.960;6.250;2022-09-09T05:50:41;7.43;;;2.00;;
39772;SDS011;25451;51.960;6.250;2022-09-09T05:53:07;5.50;;;2.10;;
39772;SDS011;25451;51.960;6.250;2022-09-09T05:55:33;5.07;;;2.08;;
39772;SDS011;25451;51.960;6.250;2022-09-09T05:57:58;4.73;;;2.07;;
39772;SDS011;25451;51.960;6.250;2022-09-09T06:00:24;6.05;;;1.92;;
39772;SDS011;25451;51.960;6.250;2022-09-09T06:02:51;3.72;;;1.70;;
39772;SDS011;25451;51.960;6.250;2022-09-09T06:05:17;4.83;;;1.80;;
39772;SDS011;25451;51.960;6.250;2022-09-09T06:07:43;4.68;;;1.80;;
39772;SDS011;25451;51.960;6.250;2022-09-09T06:10:09;4.97;;;1.80;;
39772;SDS011;25451;51.960;6.250;2022-09-09T06:12:35;5.17;;;1.90;;
39772;SDS011;25451;51.960;6.250;2022-09-09T06:15:00;4.40;;;1.70;;
39772;SDS011;25451;51.960;6.250;2022-09-09T06:17:26;5.50;;;1.77;;
39772;SDS011;25451;51.960;6.250;2022-09-09T06:19:51;4.70;;;1.60;;
39772;SDS011;25451;51.960;6.250;2022-09-09T06:22:17;4.80;;;1.60;;
39772;SDS011;25451;51.960;6.250;2022-09-09T06:24:42;4.73;;;1.73;;
39772;SDS011;25451;51.960;6.250;2022-09-09T06:27:09;6.60;;;1.80;;
39772;SDS011;25451;51.960;6.250;2022-09-09T06:29:35;6.93;;;1.90;;
39772;SDS011;25451;51.960;6.250;2022-09-09T06:32:01;4.80;;;1.60;;
39772;SDS011;25451;51.960;6.250;2022-09-09T06:34:27;6.20;;;2.00;;
39772;SDS011;25451;51.960;6.250;2022-09-09T06:36:53;7.25;;;1.90;;
39772;SDS011;25451;51.960;6.250;2022-09-09T06:39:19;3.53;;;1.67;;
39772;SDS011;25451;51.960;6.250;2022-09-09T06:41:44;4.70;;;1.60;;
39772;SDS011;25451;51.960;6.250;2022-09-09T06:44:09;5.10;;;1.70;;
39772;SDS011;25451;51.960;6.250;2022-09-09T06:46:36;6.95;;;2.00;;
39772;SDS011;25451;51.960;6.250;2022-09-09T06:49:03;5.03;;;1.60;;
39772;SDS011;25451;51.960;6.250;2022-09-09T06:51:29;4.70;;;1.70;;
39772;SDS011;25451;51.960;6.250;2022-09-09T06:53:57;4.72;;;1.50;;
39772;SDS011;25451;51.960;6.250;2022-09-09T06:56:27;5.38;;;2.00;;
39772;SDS011;25451;51.960;6.250;2022-09-09T06:59:01;6.40;;;1.80;;
39772;SDS011;25451;51.960;6.250;2022-09-09T07:01:29;7.10;;;1.90;;
39772;SDS011;25451;51.960;6.250;2022-09-09T07:03:57;6.23;;;1.90;;
39772;SDS011;25451;51.960;6.250;2022-09-09T07:06:30;7.00;;;1.90;;
39772;SDS011;25451;51.960;6.250;2022-09-09T07:09:07;7.68;;;2.10;;
39772;SDS011;25451;51.960;6.250;2022-09-09T07:11:36;6.00;;;1.42;;
39772;SDS011;25451;51.960;6.250;2022-09-09T07:14:04;9.90;;;1.90;;
39772;SDS011;25451;51.960;6.250;2022-09-09T07:16:29;6.03;;;1.77;;
39772;SDS011;25451;51.960;6.250;2022-09-09T07:18:56;5.53;;;1.85;;
39772;SDS011;25451;51.960;6.250;2022-09-09T07:21:26;5.80;;;1.77;;
39772;SDS011;25451;51.960;6.250;2022-09-09T07:23:52;8.07;;;1.90;;
39772;SDS011;25451;51.960;6.250;2022-09-09T07:26:19;5.63;;;1.67;;
39772;SDS011;25451;51.960;6.250;2022-09-09T07:28:46;6.40;;;1.80;;
39772;SDS011;25451;51.960;6.250;2022-09-09T07:31:16;7.78;;;1.70;;
39772;SDS011;25451;51.960;6.250;2022-09-09T07:33:47;6.03;;;2.10;;
39772;SDS011;25451;51.960;6.250;2022-09-09T07:38:40;4.25;;;1.50;;
39772;SDS011;25451;51.960;6.250;2022-09-09T07:41:09;5.05;;;1.85;;
39772;SDS011;25451;51.960;6.250;2022-09-09T07:43:39;6.22;;;1.85;;
39772;SDS011;25451;51.960;6.250;2022-09-09T07:46:09;3.87;;;1.70;;
39772;SDS011;25451;51.960;6.250;2022-09-09T07:48:37;6.30;;;1.70;;
39772;SDS011;25451;51.960;6.250;2022-09-09T07:51:04;8.95;;;1.75;;
39772;SDS011;25451;51.960;6.250;2022-09-09T07:53:31;8.13;;;2.03;;
39772;SDS011;25451;51.960;6.250;2022-09-09T07:56:01;6.97;;;1.90;;
39772;SDS011;25451;51.960;6.250;2022-09-09T07:58:28;6.10;;;1.67;;
39772;SDS011;25451;51.960;6.250;2022-09-09T08:00:53;4.73;;;1.73;;
39772;SDS011;25451;51.960;6.250;2022-09-09T08:03:19;4.95;;;1.60;;
39772;SDS011;25451;51.960;6.250;2022-09-09T08:05:46;5.35;;;1.75;;
39772;SDS011;25451;51.960;6.250;2022-09-09T08:08:12;6.50;;;1.70;;
39772;SDS011;25451;51.960;6.250;2022-09-09T08:10:37;4.50;;;1.70;;
39772;SDS011;25451;51.960;6.250;2022-09-09T08:13:03;5.40;;;1.67;;
39772;SDS011;25451;51.960;6.250;2022-09-09T08:15:28;4.70;;;1.50;;
39772;SDS011;25451;51.960;6.250;2022-09-09T08:17:55;5.50;;;1.50;;
39772;SDS011;25451;51.960;6.250;2022-09-09T08:20:21;7.27;;;1.50;;
39772;SDS011;25451;51.960;6.250;2022-09-09T08:22:48;7.88;;;1.63;;
39772;SDS011;25451;51.960;6.250;2022-09-09T08:25:14;7.40;;;1.77;;
39772;SDS011;25451;51.960;6.250;2022-09-09T08:27:40;6.77;;;1.60;;
39772;SDS011;25451;51.960;6.250;2022-09-09T08:30:05;5.63;;;1.30;;
39772;SDS011;25451;51.960;6.250;2022-09-09T08:32:31;6.00;;;1.45;;
39772;SDS011;25451;51.960;6.250;2022-09-09T08:34:56;6.67;;;1.77;;
39772;SDS011;25451;51.960;6.250;2022-09-09T08:37:22;5.07;;;1.70;;
39772;SDS011;25451;51.960;6.250;2022-09-09T08:39:47;7.30;;;1.67;;
39772;SDS011;25451;51.960;6.250;2022-09-09T08:48:08;6.78;;;1.50;;
39772;SDS011;25451;51.960;6.250;2022-09-09T08:50:49;4.87;;;1.50;;
39772;SDS011;25451;51.960;6.250;2022-09-09T08:53:18;5.95;;;1.40;;
39772;SDS011;25451;51.960;6.250;2022-09-09T08:58:25;5.90;;;1.52;;
39772;SDS011;25451;51.960;6.250;2022-09-09T09:03:28;5.17;;;1.23;;
39772;SDS011;25451;51.960;6.250;2022-09-09T09:06:09;7.63;;;1.77;;
39772;SDS011;25451;51.960;6.250;2022-09-09T09:09:29;3.60;;;1.40;;
39772;SDS011;25451;51.960;6.250;2022-09-09T09:11:33;4.25;;;1.50;;
39772;SDS011;25451;51.960;6.250;2022-09-09T09:14:02;9.90;;;2.00;;
39772;SDS011;25451;51.960;6.250;2022-09-09T09:19:23;3.92;;;1.23;;
39772;SDS011;25451;51.960;6.250;2022-09-09T09:21:56;4.00;;;1.20;;
39772;SDS011;25451;51.960;6.250;2022-09-09T09:27:18;5.63;;;1.40;;
39772;SDS011;25451;51.960;6.250;2022-09-09T09:29:55;5.73;;;1.30;;
39772;SDS011;25451;51.960;6.250;2022-09-09T09:32:23;8.10;;;1.40;;
39772;SDS011;25451;51.960;6.250;2022-09-09T09:34:51;5.95;;;1.33;;
39772;SDS011;25451;51.960;6.250;2022-09-09T09:37:31;10.40;;;1.60;;
39772;SDS011;25451;51.960;6.250;2022-09-09T09:40:10;5.60;;;1.13;;
39772;SDS011;25451;51.960;6.250;2022-09-09T09:42:37;4.93;;;1.20;;
39772;SDS011;25451;51.960;6.250;2022-09-09T09:45:16;3.08;;;1.00;;
39772;SDS011;25451;51.960;6.250;2022-09-09T09:48:04;6.05;;;1.10;;
39772;SDS011;25451;51.960;6.250;2022-09-09T09:50:31;4.13;;;1.20;;
39772;SDS011;25451;51.960;6.250;2022-09-09T09:52:59;5.40;;;1.10;;
39772;SDS011;25451;51.960;6.250;2022-09-09T09:55:28;5.17;;;0.83;;
39772;SDS011;25451;51.960;6.250;2022-09-09T09:58:00;5.55;;;1.05;;
39772;SDS011;25451;51.960;6.250;2022-09-09T10:00:27;6.40;;;1.40;;
39772;SDS011;25451;51.960;6.250;2022-09-09T10:02:52;3.67;;;1.20;;
39772;SDS011;25451;51.960;6.250;2022-09-09T10:07:45;6.13;;;1.33;;
39772;SDS011;25451;51.960;6.250;2022-09-09T10:10:22;4.82;;;1.00;;
39772;SDS011;25451;51.960;6.250;2022-09-09T10:13:00;5.28;;;1.15;;
39772;SDS011;25451;51.960;6.250;2022-09-09T10:30:01;3.97;;;1.10;;
39772;SDS011;25451;51.960;6.250;2022-09-09T10:41:11;7.93;;;1.08;;
39772;SDS011;25451;51.960;6.250;2022-09-09T10:46:28;7.47;;;1.08;;
39772;SDS011;25451;51.960;6.250;2022-09-09T10:57:33;3.77;;;1.03;;
39772;SDS011;25451;51.960;6.250;2022-09-09T11:00:14;3.03;;;1.10;;
39772;SDS011;25451;51.960;6.250;2022-09-09T11:02:42;4.70;;;1.00;;
39772;SDS011;25451;51.960;6.250;2022-09-09T11:13:32;4.35;;;1.00;;
39772;SDS011;25451;51.960;6.250;2022-09-09T11:18:55;6.30;;;0.98;;
39772;SDS011;25451;51.960;6.250;2022-09-09T11:21:28;3.53;;;0.90;;
39772;SDS011;25451;51.960;6.250;2022-09-09T11:24:05;2.95;;;1.02;;
39772;SDS011;25451;51.960;6.250;2022-09-09T11:26:37;4.93;;;1.10;;
39772;SDS011;25451;51.960;6.250;2022-09-09T11:29:23;4.57;;;0.97;;
39772;SDS011;25451;51.960;6.250;2022-09-09T11:40:24;7.80;;;1.00;;
39772;SDS011;25451;51.960;6.250;2022-09-09T11:43:00;4.83;;;0.90;;
39772;SDS011;25451;51.960;6.250;2022-09-09T11:45:27;4.40;;;0.90;;
39772;SDS011;25451;51.960;6.250;2022-09-09T11:47:57;5.40;;;1.02;;
39772;SDS011;25451;51.960;6.250;2022-09-09T11:52:50;3.07;;;1.00;;
39772;SDS011;25451;51.960;6.250;2022-09-09T11:58:01;4.27;;;0.90;;
39772;SDS011;25451;51.960;6.250;2022-09-09T12:00:37;4.90;;;1.08;;
39772;SDS011;25451;51.960;6.250;2022-09-09T12:03:08;5.15;;;1.00;;
39772;SDS011;25451;51.960;6.250;2022-09-09T12:08:44;3.97;;;0.85;;
39772;SDS011;25451;51.960;6.250;2022-09-09T12:11:23;2.70;;;0.80;;
39772;SDS011;25451;51.960;6.250;2022-09-09T12:13:54;6.03;;;1.02;;
39772;SDS011;25451;51.960;6.250;2022-09-09T12:16:33;2.45;;;1.00;;
39772;SDS011;25451;51.960;6.250;2022-09-09T12:19:05;2.78;;;0.68;;
39772;SDS011;25451;51.960;6.250;2022-09-09T12:21:36;2.72;;;0.70;;
39772;SDS011;25451;51.960;6.250;2022-09-09T12:24:10;2.40;;;0.80;;
39772;SDS011;25451;51.960;6.250;2022-09-09T12:26:40;3.55;;;0.90;;
39772;SDS011;25451;51.960;6.250;2022-09-09T12:34:44;5.93;;;1.23;;
39772;SDS011;25451;51.960;6.250;2022-09-09T12:39:58;4.72;;;1.15;;
39772;SDS011;25451;51.960;6.250;2022-09-09T12:42:25;2.35;;;1.02;;
39772;SDS011;25451;51.960;6.250;2022-09-09T12:44:53;6.93;;;1.58;;
39772;SDS011;25451;51.960;6.250;2022-09-09T12:47:25;4.55;;;1.10;;
39772;SDS011;25451;51.960;6.250;2022-09-09T12:49:52;4.27;;;1.00;;
39772;SDS011;25451;51.960;6.250;2022-09-09T12:55:18;3.97;;;1.10;;
39772;SDS011;25451;51.960;6.250;2022-09-09T12:57:46;2.33;;;0.90;;
39772;SDS011;25451;51.960;6.250;2022-09-09T13:00:21;1.47;;;0.90;;
39772;SDS011;25451;51.960;6.250;2022-09-09T13:02:50;3.92;;;1.20;;
39772;SDS011;25451;51.960;6.250;2022-09-09T13:07:50;5.22;;;1.30;;
39772;SDS011;25451;51.960;6.250;2022-09-09T13:10:24;3.60;;;1.20;;
39772;SDS011;25451;51.960;6.250;2022-09-09T13:12:53;4.20;;;1.30;;
39772;SDS011;25451;51.960;6.250;2022-09-09T13:15:20;4.27;;;1.33;;
39772;SDS011;25451;51.960;6.250;2022-09-09T13:17:51;3.97;;;1.30;;
39772;SDS011;25451;51.960;6.250;2022-09-09T13:20:20;4.07;;;1.27;;
39772;SDS011;25451;51.960;6.250;2022-09-09T13:22:46;3.85;;;1.50;;
39772;SDS011;25451;51.960;6.250;2022-09-09T13:25:18;4.38;;;1.40;;
39772;SDS011;25451;51.960;6.250;2022-09-09T13:33:06;3.33;;;1.40;;
39772;SDS011;25451;51.960;6.250;2022-09-09T13:38:14;3.20;;;1.30;;
39772;SDS011;25451;51.960;6.250;2022-09-09T13:40:40;4.00;;;1.20;;
39772;SDS011;25451;51.960;6.250;2022-09-09T13:43:19;4.88;;;1.33;;
39772;SDS011;25451;51.960;6.250;2022-09-09T13:48:58;3.47;;;1.42;;
39772;SDS011;25451;51.960;6.250;2022-09-09T13:51:45;3.38;;;1.40;;
39772;SDS011;25451;51.960;6.250;2022-09-09T13:54:14;4.77;;;1.43;;
39772;SDS011;25451;51.960;6.250;2022-09-09T13:56:41;2.67;;;1.25;;
39772;SDS011;25451;51.960;6.250;2022-09-09T13:59:15;3.10;;;1.50;;
39772;SDS011;25451;51.960;6.250;2022-09-09T14:01:44;5.00;;;1.30;;
39772;SDS011;25451;51.960;6.250;2022-09-09T14:04:10;4.47;;;1.73;;
39772;SDS011;25451;51.960;6.250;2022-09-09T14:06:35;4.57;;;1.43;;
39772;SDS011;25451;51.960;6.250;2022-09-09T14:09:03;4.73;;;1.60;;
39772;SDS011;25451;51.960;6.250;2022-09-09T14:11:29;5.15;;;1.60;;
39772;SDS011;25451;51.960;6.250;2022-09-09T14:13:54;3.73;;;1.30;;
39772;SDS011;25451;51.960;6.250;2022-09-09T14:16:20;3.22;;;1.30;;
39772;SDS011;25451;51.960;6.250;2022-09-09T14:18:46;3.95;;;1.30;;
39772;SDS011;25451;51.960;6.250;2022-09-09T14:21:12;4.53;;;1.23;;
39772;SDS011;25451;51.960;6.250;2022-09-09T14:23:37;4.10;;;1.20;;
39772;SDS011;25451;51.960;6.250;2022-09-09T14:26:03;4.30;;;1.30;;
39772;SDS011;25451;51.960;6.250;2022-09-09T14:28:29;3.58;;;1.10;;
39772;SDS011;25451;51.960;6.250;2022-09-09T14:30:54;3.60;;;1.20;;
39772;SDS011;25451;51.960;6.250;2022-09-09T14:33:19;4.30;;;1.20;;
39772;SDS011;25451;51.960;6.250;2022-09-09T14:35:46;2.53;;;1.10;;
39772;SDS011;25451;51.960;6.250;2022-09-09T14:38:11;3.60;;;1.20;;
39772;SDS011;25451;51.960;6.250;2022-09-09T14:40:37;4.73;;;1.53;;
39772;SDS011;25451;51.960;6.250;2022-09-09T14:43:03;5.28;;;1.42;;
39772;SDS011;25451;51.960;6.250;2022-09-09T14:45:30;2.70;;;1.30;;
39772;SDS011;25451;51.960;6.250;2022-09-09T14:47:56;4.30;;;1.30;;
39772;SDS011;25451;51.960;6.250;2022-09-09T14:50:22;3.75;;;1.38;;
39772;SDS011;25451;51.960;6.250;2022-09-09T14:52:48;3.87;;;1.23;;
39772;SDS011;25451;51.960;6.250;2022-09-09T14:55:15;5.05;;;1.45;;
39772;SDS011;25451;51.960;6.250;2022-09-09T14:57:41;3.92;;;1.45;;
39772;SDS011;25451;51.960;6.250;2022-09-09T15:00:07;2.13;;;1.00;;
39772;SDS011;25451;51.960;6.250;2022-09-09T15:02:34;3.00;;;1.03;;
39772;SDS011;25451;51.960;6.250;2022-09-09T15:05:00;2.53;;;1.10;;
39772;SDS011;25451;51.960;6.250;2022-09-09T15:07:26;4.80;;;1.30;;
39772;SDS011;25451;51.960;6.250;2022-09-09T15:09:53;3.38;;;1.30;;
39772;SDS011;25451;51.960;6.250;2022-09-09T15:12:19;2.72;;;1.30;;
39772;SDS011;25451;51.960;6.250;2022-09-09T15:14:45;5.75;;;1.50;;
39772;SDS011;25451;51.960;6.250;2022-09-09T15:17:11;4.57;;;1.47;;
39772;SDS011;25451;51.960;6.250;2022-09-09T15:19:37;4.70;;;1.50;;
39772;SDS011;25451;51.960;6.250;2022-09-09T15:22:03;2.90;;;1.20;;
39772;SDS011;25451;51.960;6.250;2022-09-09T15:24:31;5.15;;;1.52;;
39772;SDS011;25451;51.960;6.250;2022-09-09T15:26:57;4.20;;;1.50;;
39772;SDS011;25451;51.960;6.250;2022-09-09T15:29:23;3.30;;;1.20;;
39772;SDS011;25451;51.960;6.250;2022-09-09T15:31:48;4.53;;;1.55;;
39772;SDS011;25451;51.960;6.250;2022-09-09T15:34:14;4.33;;;1.40;;
39772;SDS011;25451;51.960;6.250;2022-09-09T15:36:40;3.15;;;1.20;;
39772;SDS011;25451;51.960;6.250;2022-09-09T15:39:08;4.37;;;1.30;;
39772;SDS011;25451;51.960;6.250;2022-09-09T15:41:37;3.97;;;1.10;;
39772;SDS011;25451;51.960;6.250;2022-09-09T15:44:03;3.45;;;1.20;;
39772;SDS011;25451;51.960;6.250;2022-09-09T15:51:36;4.17;;;1.30;;
39772;SDS011;25451;51.960;6.250;2022-09-09T15:54:02;3.25;;;1.10;;
39772;SDS011;25451;51.960;6.250;2022-09-09T15:56:29;5.80;;;1.40;;
39772;SDS011;25451;51.960;6.250;2022-09-09T15:58:58;4.43;;;1.40;;
39772;SDS011;25451;51.960;6.250;2022-09-09T16:01:25;3.60;;;1.20;;
39772;SDS011;25451;51.960;6.250;2022-09-09T16:03:51;2.95;;;1.17;;
39772;SDS011;25451;51.960;6.250;2022-09-09T16:06:18;3.10;;;1.20;;
39772;SDS011;25451;51.960;6.250;2022-09-09T16:08:46;3.80;;;1.40;;
39772;SDS011;25451;51.960;6.250;2022-09-09T16:11:16;5.13;;;1.20;;
39772;SDS011;25451;51.960;6.250;2022-09-09T16:13:45;3.35;;;1.10;;
39772;SDS011;25451;51.960;6.250;2022-09-09T16:16:11;3.42;;;1.13;;
39772;SDS011;25451;51.960;6.250;2022-09-09T16:18:41;3.53;;;1.05;;
39772;SDS011;25451;51.960;6.250;2022-09-09T16:21:13;3.92;;;1.10;;
39772;SDS011;25451;51.960;6.250;2022-09-09T16:23:41;2.70;;;1.00;;
39772;SDS011;25451;51.960;6.250;2022-09-09T16:26:08;3.72;;;1.20;;
39772;SDS011;25451;51.960;6.250;2022-09-09T16:28:35;6.03;;;1.40;;
39772;SDS011;25451;51.960;6.250;2022-09-09T16:31:03;6.53;;;1.30;;
39772;SDS011;25451;51.960;6.250;2022-09-09T16:33:29;3.28;;;1.00;;
39772;SDS011;25451;51.960;6.250;2022-09-09T16:35:55;2.67;;;1.00;;
39772;SDS011;25451;51.960;6.250;2022-09-09T16:38:20;3.93;;;1.30;;
39772;SDS011;25451;51.960;6.250;2022-09-09T16:40:45;5.17;;;1.27;;
39772;SDS011;25451;51.960;6.250;2022-09-09T16:43:11;3.53;;;1.10;;
39772;SDS011;25451;51.960;6.250;2022-09-09T16:45:43;4.83;;;1.27;;
39772;SDS011;25451;51.960;6.250;2022-09-09T16:48:10;4.72;;;1.25;;
39772;SDS011;25451;51.960;6.250;2022-09-09T16:50:35;3.28;;;1.30;;
39772;SDS011;25451;51.960;6.250;2022-09-09T16:53:01;5.07;;;1.60;;
39772;SDS011;25451;51.960;6.250;2022-09-09T16:55:31;11.20;;;2.00;;
39772;SDS011;25451;51.960;6.250;2022-09-09T16:57:57;9.52;;;1.65;;
39772;SDS011;25451;51.960;6.250;2022-09-09T17:00:22;10.60;;;1.50;;
39772;SDS011;25451;51.960;6.250;2022-09-09T17:02:48;5.22;;;1.08;;
39772;SDS011;25451;51.960;6.250;2022-09-09T17:05:13;3.33;;;0.90;;
39772;SDS011;25451;51.960;6.250;2022-09-09T17:07:39;2.60;;;0.90;;
39772;SDS011;25451;51.960;6.250;2022-09-09T17:10:05;3.40;;;1.00;;
39772;SDS011;25451;51.960;6.250;2022-09-09T17:12:32;2.95;;;1.05;;
39772;SDS011;25451;51.960;6.250;2022-09-09T17:14:57;3.50;;;1.10;;
39772;SDS011;25451;51.960;6.250;2022-09-09T17:17:24;2.35;;;1.00;;
39772;SDS011;25451;51.960;6.250;2022-09-09T17:19:51;5.03;;;1.02;;
39772;SDS011;25451;51.960;6.250;2022-09-09T17:22:17;2.88;;;0.90;;
39772;SDS011;25451;51.960;6.250;2022-09-09T17:24:43;1.80;;;1.00;;
39772;SDS011;25451;51.960;6.250;2022-09-09T17:27:09;5.25;;;1.10;;
39772;SDS011;25451;51.960;6.250;2022-09-09T17:29:34;2.00;;;0.90;;
39772;SDS011;25451;51.960;6.250;2022-09-09T17:32:01;3.13;;;0.98;;
39772;SDS011;25451;51.960;6.250;2022-09-09T17:34:27;2.10;;;1.10;;